Time;durP1;ratioP1;P1;durP2;ratioP2;P2;SDS_P1;SDS_P2;PMS_P1;PMS_P2;Temp;Humidity;BMP_temperature;BMP_pressure;BME280_temperature;BME280_humidity;BME280_pressure;Samples;Min_cycle;Max_cycle;Signal;HPM_P1;HPM_P2
2021/09/05 00:02:06;;;;;;;15.10;8.00;;;10.80;99.90;;;;;;4425707;32;20136;-68
2021/09/05 00:04:33;;;;;;;15.37;8.17;;;10.80;99.90;;;;;;4424129;32;20131;-69
2021/09/05 00:06:59;;;;;;;15.17;7.60;;;10.70;99.90;;;;;;4425557;32;20159;-69
2021/09/05 00:09:26;;;;;;;13.37;6.80;;;10.70;99.90;;;;;;4424221;32;20131;-69
2021/09/05 00:11:53;;;;;;;14.20;8.07;;;10.60;99.90;;;;;;4425399;32;20443;-69
2021/09/05 00:14:20;;;;;;;15.50;7.10;;;10.60;99.90;;;;;;4425465;32;20195;-68
2021/09/05 00:16:47;;;;;;;13.37;7.60;;;10.50;99.90;;;;;;4425035;32;20517;-68
2021/09/05 00:19:13;;;;;;;15.77;7.47;;;10.50;99.90;;;;;;4425426;32;20131;-68
2021/09/05 00:21:40;;;;;;;12.93;7.63;;;10.50;99.90;;;;;;4424302;32;20395;-68
2021/09/05 00:24:07;;;;;;;14.63;7.80;;;10.50;99.90;;;;;;4425294;32;20131;-67
2021/09/05 00:26:34;;;;;;;14.53;8.03;;;10.40;99.90;;;;;;4424932;32;20212;-68
2021/09/05 00:29:00;;;;;;;12.23;7.50;;;10.40;99.90;;;;;;4423657;32;20542;-68
2021/09/05 00:31:27;;;;;;;15.20;7.63;;;10.40;99.90;;;;;;4425120;32;20135;-69
2021/09/05 00:33:58;;;;;;;14.17;7.70;;;10.30;99.90;;;;;;4425083;32;20453;-68
2021/09/05 00:36:25;;;;;;;14.50;8.10;;;10.30;99.90;;;;;;4424476;32;20163;-69
2021/09/05 00:38:52;;;;;;;12.83;7.40;;;10.30;99.90;;;;;;4423590;32;20143;-68
2021/09/05 00:41:19;;;;;;;14.63;7.40;;;10.30;99.90;;;;;;4423547;32;20141;-68
2021/09/05 00:43:57;;;;;;;13.63;7.60;;;10.30;99.90;;;;;;4423533;32;20215;-68
2021/09/05 00:46:23;;;;;;;12.27;6.80;;;10.20;99.90;;;;;;4424579;32;20437;-69
2021/09/05 00:48:50;;;;;;;14.60;7.70;;;10.20;99.90;;;;;;4394690;32;20140;-68
2021/09/05 00:51:17;;;;;;;12.50;7.40;;;10.10;99.90;;;;;;4393537;32;20438;-68
2021/09/05 00:53:45;;;;;;;13.93;6.93;;;10.10;99.90;;;;;;4392997;32;20185;-67
2021/09/05 00:56:13;;;;;;;13.63;7.17;;;10.10;99.90;;;;;;4392776;32;20446;-69
2021/09/05 00:58:41;;;;;;;13.17;7.27;;;10.00;99.90;;;;;;4393804;32;20423;-68
2021/09/05 01:01:08;;;;;;;15.93;6.93;;;10.00;99.90;;;;;;4393551;32;20413;-68
2021/09/05 01:03:35;;;;;;;12.23;6.60;;;9.90;99.90;;;;;;4392586;32;20167;-69
2021/09/05 01:06:02;;;;;;;13.10;7.53;;;9.90;99.90;;;;;;4392944;32;20140;-67
2021/09/05 01:08:30;;;;;;;13.33;7.00;;;9.80;99.90;;;;;;4394301;32;20192;-68
2021/09/05 01:10:57;;;;;;;11.97;6.77;;;9.90;99.90;;;;;;4392846;32;20124;-68
2021/09/05 01:13:25;;;;;;;13.57;7.30;;;9.80;99.90;;;;;;4394652;32;20127;-68
2021/09/05 01:15:52;;;;;;;13.17;7.30;;;9.80;99.90;;;;;;4394259;32;20197;-68
2021/09/05 01:18:19;;;;;;;12.23;6.60;;;9.80;99.90;;;;;;4394702;32;20128;-68
2021/09/05 01:20:45;;;;;;;11.47;7.10;;;9.70;99.90;;;;;;4394056;32;20392;-68
2021/09/05 01:23:12;;;;;;;14.53;7.10;;;9.70;99.90;;;;;;4394113;32;20123;-68
2021/09/05 01:25:40;;;;;;;13.43;6.90;;;9.70;99.90;;;;;;4394261;32;20132;-68
2021/09/05 01:28:08;;;;;;;14.73;6.70;;;9.60;99.90;;;;;;4392727;32;20155;-69
2021/09/05 01:30:35;;;;;;;13.37;6.43;;;9.60;99.90;;;;;;4392664;32;20213;-68
2021/09/05 01:33:02;;;;;;;13.30;7.37;;;9.60;99.90;;;;;;4393990;32;20135;-67
2021/09/05 01:35:32;;;;;;;11.40;6.97;;;9.60;99.90;;;;;;4394405;32;20132;-67
2021/09/05 01:37:58;;;;;;;11.60;6.57;;;9.60;99.90;;;;;;4392751;32;20132;-68
2021/09/05 01:40:25;;;;;;;12.63;6.37;;;9.50;99.90;;;;;;4392294;32;20570;-67
2021/09/05 01:42:52;;;;;;;12.23;6.30;;;9.50;99.90;;;;;;4394328;32;20140;-68
2021/09/05 01:45:18;;;;;;;13.37;6.50;;;9.50;99.90;;;;;;4393216;32;20144;-67
2021/09/05 01:47:45;;;;;;;11.23;6.27;;;9.50;99.90;;;;;;4409985;32;20204;-68
2021/09/05 01:50:12;;;;;;;10.83;6.07;;;9.50;99.90;;;;;;4422654;32;20131;-67
2021/09/05 01:52:39;;;;;;;11.63;6.33;;;9.50;99.90;;;;;;4422925;32;20172;-68
2021/09/05 01:55:06;;;;;;;9.33;5.73;;;9.50;99.90;;;;;;4424467;32;20212;-68
2021/09/05 01:57:34;;;;;;;9.80;5.90;;;9.60;99.90;;;;;;4423335;32;20372;-68
2021/09/05 02:00:00;;;;;;;11.80;6.00;;;9.50;99.90;;;;;;4424901;32;20126;-68
2021/09/05 02:02:27;;;;;;;10.70;5.90;;;9.50;99.90;;;;;;4424289;32;20381;-68
2021/09/05 02:04:54;;;;;;;10.90;5.77;;;9.40;99.90;;;;;;4423672;32;20166;-68
2021/09/05 02:07:21;;;;;;;11.00;5.73;;;9.40;99.90;;;;;;4422061;32;20154;-68
2021/09/05 02:09:48;;;;;;;12.03;6.10;;;9.40;99.90;;;;;;4423883;32;20139;-68
2021/09/05 02:12:15;;;;;;;11.93;6.13;;;9.30;99.90;;;;;;4423446;32;20212;-68
2021/09/05 02:14:41;;;;;;;9.00;5.43;;;9.40;99.90;;;;;;4424727;32;20454;-68
2021/09/05 02:17:08;;;;;;;10.10;5.77;;;9.40;99.90;;;;;;4423592;32;20135;-68
2021/09/05 02:19:35;;;;;;;10.53;5.70;;;9.40;99.90;;;;;;4424428;32;20474;-68
2021/09/05 02:22:02;;;;;;;10.03;5.40;;;9.40;99.90;;;;;;4424272;32;20176;-68
2021/09/05 02:24:29;;;;;;;10.27;5.67;;;9.40;99.90;;;;;;4423071;32;20337;-68
2021/09/05 02:26:55;;;;;;;9.40;5.27;;;9.50;99.90;;;;;;4424092;32;20208;-69
2021/09/05 02:29:22;;;;;;;10.17;5.77;;;9.50;99.90;;;;;;4423960;32;20140;-69
2021/09/05 02:31:52;;;;;;;8.47;5.43;;;9.50;99.90;;;;;;4422790;32;20221;-68
2021/09/05 02:34:19;;;;;;;10.87;5.70;;;9.50;99.90;;;;;;4423014;32;20396;-69
2021/09/05 02:36:46;;;;;;;9.77;5.20;;;9.50;99.90;;;;;;4422890;32;20235;-69
2021/09/05 02:39:13;;;;;;;11.20;5.30;;;9.50;99.90;;;;;;4425484;32;20389;-69
2021/09/05 02:41:40;;;;;;;9.23;5.50;;;9.50;99.90;;;;;;4425459;32;20142;-69
2021/09/05 02:44:06;;;;;;;10.97;5.77;;;9.50;99.90;;;;;;4427216;32;20211;-69
2021/09/05 02:46:33;;;;;;;9.03;5.37;;;9.50;99.90;;;;;;4427079;32;20406;-69
2021/09/05 02:49:00;;;;;;;8.73;4.97;;;9.50;99.90;;;;;;4425502;32;20483;-68
2021/09/05 02:51:27;;;;;;;7.50;4.67;;;9.40;99.90;;;;;;4425501;32;20155;-69
2021/09/05 02:53:53;;;;;;;8.30;5.03;;;9.40;99.90;;;;;;4426834;32;20123;-68
2021/09/05 02:56:20;;;;;;;11.87;5.50;;;9.40;99.90;;;;;;4426879;32;20394;-68
2021/09/05 02:58:47;;;;;;;12.10;5.53;;;9.30;99.90;;;;;;4426214;32;20158;-69
2021/09/05 03:01:13;;;;;;;9.17;5.10;;;9.30;99.90;;;;;;4424185;32;20537;-69
2021/09/05 03:03:41;;;;;;;8.10;4.90;;;9.20;99.90;;;;;;4426617;32;20123;-68
2021/09/05 03:06:08;;;;;;;8.63;5.00;;;9.20;99.90;;;;;;4426890;32;20127;-69
2021/09/05 03:08:34;;;;;;;8.93;5.20;;;9.20;99.90;;;;;;4426614;32;20161;-68
2021/09/05 03:11:02;;;;;;;10.07;5.20;;;9.10;99.90;;;;;;4425061;32;20441;-69
2021/09/05 03:13:29;;;;;;;9.27;4.83;;;9.10;99.90;;;;;;4426910;32;20395;-69
2021/09/05 03:15:56;;;;;;;8.20;4.87;;;9.10;99.90;;;;;;4426110;32;20185;-69
2021/09/05 03:18:22;;;;;;;9.27;4.60;;;9.00;99.90;;;;;;4426686;32;20410;-69
2021/09/05 03:20:49;;;;;;;7.93;4.83;;;9.00;99.90;;;;;;4425621;32;20131;-69
2021/09/05 03:23:16;;;;;;;7.77;4.57;;;9.00;99.90;;;;;;4425937;32;20124;-69
2021/09/05 03:25:43;;;;;;;6.87;4.63;;;8.90;99.90;;;;;;4424829;32;20180;-69
2021/09/05 03:28:10;;;;;;;8.30;4.70;;;8.90;99.90;;;;;;4425068;32;20209;-69
2021/09/05 03:30:37;;;;;;;9.87;5.00;;;8.90;99.90;;;;;;4424835;32;20227;-68
2021/09/05 03:33:04;;;;;;;9.40;5.00;;;8.90;99.90;;;;;;4424866;32;20128;-69
2021/09/05 03:35:30;;;;;;;7.63;5.20;;;8.80;99.90;;;;;;4426053;32;20173;-69
2021/09/05 03:37:57;;;;;;;8.47;4.63;;;8.80;99.90;;;;;;4424537;32;20142;-69
2021/09/05 03:40:24;;;;;;;10.50;4.40;;;8.70;99.90;;;;;;4426342;32;20119;-69
2021/09/05 03:42:51;;;;;;;8.77;4.70;;;8.70;99.90;;;;;;4426030;32;20128;-69
2021/09/05 03:45:17;;;;;;;9.33;4.77;;;8.70;99.90;;;;;;4426365;32;20166;-69
2021/09/05 03:47:44;;;;;;;8.57;4.60;;;8.70;99.90;;;;;;4424221;32;20209;-69
2021/09/05 03:50:11;;;;;;;9.90;4.97;;;8.60;99.90;;;;;;4425585;32;20172;-68
2021/09/05 03:52:38;;;;;;;9.30;4.73;;;8.70;99.90;;;;;;4425429;32;20469;-68
2021/09/05 03:55:05;;;;;;;8.40;4.87;;;8.60;99.90;;;;;;4425619;32;20379;-68
2021/09/05 03:57:33;;;;;;;8.63;5.20;;;8.60;99.90;;;;;;4424377;32;20460;-68
2021/09/05 04:00:00;;;;;;;7.97;4.53;;;8.60;99.90;;;;;;4424527;32;20172;-69
2021/09/05 04:02:26;;;;;;;8.93;5.13;;;8.60;99.90;;;;;;4423176;32;20147;-68
2021/09/05 04:04:53;;;;;;;9.67;5.20;;;8.60;99.90;;;;;;4425649;32;20143;-68
2021/09/05 04:07:20;;;;;;;9.07;4.97;;;8.50;99.90;;;;;;4425665;32;20123;-68
2021/09/05 04:12:33;;;;;;;9.40;5.60;;;8.50;99.90;;;;;;4425935;32;20119;-69
2021/09/05 04:15:00;;;;;;;8.83;5.23;;;8.50;99.90;;;;;;4425741;32;20213;-69
2021/09/05 04:17:27;;;;;;;8.27;4.93;;;8.50;99.90;;;;;;4423796;32;20135;-68
2021/09/05 04:19:54;;;;;;;9.30;5.40;;;8.50;99.90;;;;;;4424900;32;20380;-68
2021/09/05 04:22:20;;;;;;;8.27;5.30;;;8.50;99.90;;;;;;4423687;32;20139;-68
2021/09/05 04:24:47;;;;;;;9.43;5.20;;;8.50;99.90;;;;;;4424665;32;20175;-68
2021/09/05 04:27:14;;;;;;;9.57;5.73;;;8.50;99.90;;;;;;4424710;32;20255;-68
2021/09/05 04:29:41;;;;;;;8.60;5.20;;;8.50;99.90;;;;;;4425455;32;20131;-68
2021/09/05 04:32:08;;;;;;;10.23;5.60;;;8.50;99.90;;;;;;4425537;32;20196;-69
2021/09/05 04:34:34;;;;;;;8.43;5.30;;;8.50;99.90;;;;;;4425635;32;20127;-69
2021/09/05 04:37:02;;;;;;;8.20;5.17;;;8.50;99.90;;;;;;4423888;32;20180;-69
2021/09/05 04:39:28;;;;;;;8.40;5.33;;;8.50;99.90;;;;;;4425667;32;20291;-69
2021/09/05 04:41:55;;;;;;;10.33;6.10;;;8.50;99.90;;;;;;4424347;32;20128;-69
2021/09/05 04:44:22;;;;;;;11.23;5.73;;;8.50;99.90;;;;;;4425522;32;20127;-69
2021/09/05 04:46:49;;;;;;;11.77;5.80;;;8.50;99.90;;;;;;4424601;32;20147;-69
2021/09/05 04:49:16;;;;;;;8.57;5.43;;;8.50;99.90;;;;;;4424499;32;20132;-69
2021/09/05 04:51:42;;;;;;;11.53;5.57;;;8.60;99.90;;;;;;4424952;32;20127;-69
2021/09/05 04:54:09;;;;;;;9.83;5.97;;;8.60;99.90;;;;;;4423716;32;20154;-69
2021/09/05 04:56:36;;;;;;;8.23;5.00;;;8.70;99.90;;;;;;4423622;32;20388;-69
2021/09/05 04:59:03;;;;;;;9.77;5.70;;;8.70;99.90;;;;;;4423616;32;20509;-69
2021/09/05 05:01:30;;;;;;;7.83;5.03;;;8.80;99.90;;;;;;4424802;32;20127;-69
2021/09/05 05:03:57;;;;;;;13.07;5.70;;;8.80;99.90;;;;;;4423815;32;20139;-69
2021/09/05 05:06:40;;;;;;;8.73;5.67;;;8.90;99.90;;;;;;4425036;32;20373;-69
2021/09/05 05:09:12;;;;;;;10.17;5.13;;;8.90;99.90;;;;;;4423190;32;20142;-68
2021/09/05 05:11:39;;;;;;;8.57;5.33;;;9.00;99.90;;;;;;4424845;32;20167;-69
2021/09/05 05:14:07;;;;;;;8.33;4.83;;;9.10;99.90;;;;;;4424821;32;20425;-68
2021/09/05 05:16:34;;;;;;;8.57;5.30;;;9.20;99.90;;;;;;4423093;32;20158;-69
2021/09/05 05:19:01;;;;;;;8.73;5.07;;;9.30;99.90;;;;;;4424771;32;20127;-69
2021/09/05 05:21:28;;;;;;;12.30;5.30;;;9.40;99.90;;;;;;4423194;32;20216;-69
2021/09/05 05:23:56;;;;;;;7.67;5.07;;;9.40;99.90;;;;;;4424837;32;20123;-69
2021/09/05 05:26:24;;;;;;;10.00;5.07;;;9.50;99.90;;;;;;4423875;32;20127;-67
2021/09/05 05:28:51;;;;;;;7.73;4.70;;;9.50;99.90;;;;;;4424582;32;20131;-70
2021/09/05 05:31:17;;;;;;;7.70;4.20;;;9.60;99.90;;;;;;4423019;32;20235;-70
2021/09/05 05:33:44;;;;;;;7.03;4.17;;;9.60;99.90;;;;;;4423154;32;20156;-69
2021/09/05 05:36:11;;;;;;;6.40;4.33;;;9.70;99.90;;;;;;4423057;32;20180;-69
2021/09/05 05:38:39;;;;;;;8.17;4.27;;;9.70;99.90;;;;;;4424789;32;20127;-69
2021/09/05 05:41:05;;;;;;;6.67;4.10;;;9.80;99.90;;;;;;4421918;32;20132;-70
2021/09/05 05:43:33;;;;;;;6.50;4.00;;;9.80;99.90;;;;;;4422714;32;20123;-69
2021/09/05 05:46:00;;;;;;;7.23;3.90;;;9.90;99.90;;;;;;4423729;32;20145;-70
2021/09/05 05:48:27;;;;;;;6.93;3.63;;;10.00;99.90;;;;;;4422638;32;20210;-69
2021/09/05 05:50:53;;;;;;;5.93;3.40;;;10.00;99.90;;;;;;4424224;32;20173;-69
2021/09/05 05:53:21;;;;;;;6.33;3.50;;;10.00;99.90;;;;;;4422760;32;20462;-68
2021/09/05 05:55:48;;;;;;;10.03;3.30;;;10.10;99.90;;;;;;4424006;32;20176;-69
2021/09/05 05:58:15;;;;;;;5.63;3.43;;;10.20;99.90;;;;;;4422200;32;20208;-69
2021/09/05 06:00:57;;;;;;;5.00;3.40;;;10.30;99.90;;;;;;4422976;32;20127;-69
2021/09/05 06:03:24;;;;;;;7.07;3.40;;;10.40;99.90;;;;;;4423387;32;20540;-69
2021/09/05 06:05:51;;;;;;;7.20;3.37;;;10.50;99.90;;;;;;4424665;32;20181;-70
2021/09/05 06:08:19;;;;;;;5.03;3.13;;;10.60;99.90;;;;;;4422637;32;20179;-69
2021/09/05 06:10:46;;;;;;;3.97;2.60;;;10.70;99.90;;;;;;4422936;32;20243;-69
2021/09/05 06:13:12;;;;;;;5.37;2.67;;;10.80;99.90;;;;;;4422442;32;20403;-69
2021/09/05 06:15:39;;;;;;;4.70;2.87;;;10.80;99.90;;;;;;4426498;32;20155;-69
2021/09/05 06:18:06;;;;;;;5.93;2.87;;;10.90;99.90;;;;;;4426182;32;20135;-70
2021/09/05 06:20:33;;;;;;;4.80;2.80;;;10.90;99.90;;;;;;4426467;32;20469;-68
2021/09/05 06:23:04;;;;;;;4.33;2.60;;;11.00;99.90;;;;;;4427440;32;20408;-69
2021/09/05 06:25:30;;;;;;;3.87;2.53;;;11.10;99.90;;;;;;4425770;32;20432;-70
2021/09/05 06:27:57;;;;;;;5.47;2.50;;;11.20;99.90;;;;;;4425810;32;20463;-69
2021/09/05 06:30:24;;;;;;;5.83;2.30;;;11.20;99.90;;;;;;4426523;32;20193;-69
2021/09/05 06:32:51;;;;;;;3.63;1.97;;;11.30;99.90;;;;;;4425683;32;20131;-70
2021/09/05 06:35:17;;;;;;;6.03;2.17;;;11.40;99.90;;;;;;4427044;32;20136;-69
2021/09/05 06:37:44;;;;;;;4.17;2.20;;;11.50;99.90;;;;;;4426002;32;20172;-70
2021/09/05 06:40:12;;;;;;;4.47;2.30;;;11.60;99.90;;;;;;4426835;32;20334;-69
2021/09/05 06:42:39;;;;;;;3.10;1.80;;;11.60;99.90;;;;;;4426106;32;20163;-69
2021/09/05 06:45:06;;;;;;;4.17;2.13;;;11.70;99.90;;;;;;4425070;32;20482;-69
2021/09/05 06:47:33;;;;;;;2.83;1.97;;;11.80;99.90;;;;;;4425760;32;20461;-69
2021/09/05 06:50:00;;;;;;;4.67;1.80;;;11.80;99.90;;;;;;4425505;32;20184;-69
2021/09/05 06:52:27;;;;;;;3.10;1.70;;;11.90;99.90;;;;;;4426643;32;20155;-70
2021/09/05 06:54:56;;;;;;;2.73;1.90;;;11.90;99.90;;;;;;4425385;32;20523;-68
2021/09/05 06:57:23;;;;;;;4.80;1.97;;;12.00;99.90;;;;;;4425817;32;20219;-68
2021/09/05 06:59:50;;;;;;;2.77;1.80;;;12.20;99.90;;;;;;4426518;32;20215;-69
2021/09/05 07:02:18;;;;;;;3.40;1.90;;;12.30;99.90;;;;;;4424796;32;20192;-68
2021/09/05 07:04:45;;;;;;;2.70;1.80;;;12.40;99.90;;;;;;4425957;32;20194;-69
2021/09/05 07:07:14;;;;;;;3.17;1.40;;;12.40;99.90;;;;;;4424618;32;20123;-68
2021/09/05 07:09:41;;;;;;;3.23;1.80;;;12.50;99.90;;;;;;4425754;32;20139;-70
2021/09/05 07:12:08;;;;;;;2.87;1.53;;;12.60;99.90;;;;;;4424788;32;20127;-69
2021/09/05 07:14:35;;;;;;;5.73;1.43;;;12.70;99.90;;;;;;4425800;32;20454;-69
2021/09/05 07:17:02;;;;;;;2.60;1.80;;;12.80;99.90;;;;;;4425694;32;20207;-69
2021/09/05 07:19:28;;;;;;;3.00;1.90;;;12.80;99.90;;;;;;4424652;32;20138;-69
2021/09/05 07:21:55;;;;;;;3.60;2.00;;;13.00;99.90;;;;;;4425664;32;20399;-69
2021/09/05 07:24:25;;;;;;;3.27;1.93;;;13.10;99.90;;;;;;4424949;32;20152;-69
2021/09/05 07:26:53;;;;;;;3.93;1.90;;;13.20;99.90;;;;;;4425443;32;20437;-69
2021/09/05 07:29:19;;;;;;;5.03;2.40;;;13.30;99.90;;;;;;4424748;32;20446;-70
2021/09/05 07:31:46;;;;;;;2.80;1.67;;;13.40;99.90;;;;;;4425631;32;20180;-69
2021/09/05 07:34:13;;;;;;;2.57;1.70;;;13.50;99.90;;;;;;4425635;32;20127;-69
2021/09/05 07:36:41;;;;;;;3.60;1.60;;;13.50;99.90;;;;;;4426871;32;20223;-70
2021/09/05 07:39:09;;;;;;;4.07;1.50;;;13.60;99.90;;;;;;4425305;32;20529;-70
2021/09/05 07:41:37;;;;;;;2.53;1.60;;;13.60;99.90;;;;;;4425327;32;20445;-70
2021/09/05 07:44:04;;;;;;;3.07;1.70;;;13.60;99.90;;;;;;4424753;32;20135;-69
2021/09/05 07:46:31;;;;;;;6.20;1.70;;;13.70;99.90;;;;;;4425835;32;20130;-70
2021/09/05 07:48:57;;;;;;;2.40;1.17;;;13.70;99.90;;;;;;4425099;32;20403;-70
2021/09/05 07:51:24;;;;;;;2.30;1.47;;;13.70;99.90;;;;;;4424981;32;20131;-70
2021/09/05 07:53:52;;;;;;;5.13;1.20;;;13.80;99.90;;;;;;4424283;32;20194;-68
2021/09/05 07:56:19;;;;;;;2.53;1.30;;;13.80;99.90;;;;;;4424270;32;20137;-69
2021/09/05 07:58:47;;;;;;;2.73;1.30;;;13.90;99.90;;;;;;4424022;32;20515;-69
2021/09/05 08:01:15;;;;;;;1.90;1.20;;;14.00;99.90;;;;;;4425578;32;20337;-69
2021/09/05 08:03:42;;;;;;;2.50;1.40;;;14.00;99.90;;;;;;4424368;32;20205;-70
2021/09/05 08:06:09;;;;;;;2.30;1.20;;;14.10;99.90;;;;;;4424058;32;20133;-69
2021/09/05 08:08:36;;;;;;;2.63;1.20;;;14.10;99.90;;;;;;4423984;32;20218;-69
2021/09/05 08:11:04;;;;;;;1.93;1.10;;;14.20;99.90;;;;;;4425260;32;20135;-70
2021/09/05 08:13:32;;;;;;;1.90;1.10;;;14.30;99.90;;;;;;4425540;32;20165;-70
2021/09/05 08:16:02;;;;;;;2.43;1.10;;;14.40;99.90;;;;;;4425590;32;20182;-69
2021/09/05 08:18:31;;;;;;;1.60;1.00;;;14.50;99.90;;;;;;4425285;32;20131;-70
2021/09/05 08:20:58;;;;;;;1.83;1.10;;;14.60;99.90;;;;;;4425344;32;20131;-69
2021/09/05 08:23:25;;;;;;;2.40;1.03;;;14.80;99.90;;;;;;4423873;32;20184;-70
2021/09/05 08:25:52;;;;;;;1.10;0.80;;;15.00;99.90;;;;;;4424643;32;20175;-70
2021/09/05 08:28:19;;;;;;;1.27;0.90;;;15.40;99.90;;;;;;4424324;32;20542;-69
2021/09/05 08:30:47;;;;;;;2.00;1.03;;;15.90;99.90;;;;;;4423159;32;20554;-71
2021/09/05 08:33:18;;;;;;;1.67;0.77;;;16.80;99.90;;;;;;4423913;32;20192;-70
2021/09/05 08:35:46;;;;;;;1.80;1.10;;;17.60;99.90;;;;;;4424099;32;20131;-71
2021/09/05 08:38:14;;;;;;;2.03;0.80;;;18.20;99.90;;;;;;4424519;32;20151;-70
2021/09/05 08:40:43;;;;;;;1.30;0.77;;;18.60;99.20;;;;;;4425280;32;20166;-71
2021/09/05 08:43:11;;;;;;;1.30;0.80;;;18.90;97.20;;;;;;4425555;32;20166;-70
2021/09/05 08:45:39;;;;;;;1.03;0.80;;;19.40;95.50;;;;;;4425255;32;20176;-69
2021/09/05 08:48:07;;;;;;;2.20;0.90;;;19.90;94.10;;;;;;4423353;32;20143;-70
2021/09/05 08:50:34;;;;;;;1.77;0.90;;;20.30;92.90;;;;;;4425029;32;20161;-70
2021/09/05 08:53:02;;;;;;;1.97;0.80;;;20.60;90.90;;;;;;4425042;32;20190;-69
2021/09/05 08:55:29;;;;;;;1.17;0.70;;;20.90;88.50;;;;;;4423365;32;20123;-70
2021/09/05 08:57:55;;;;;;;1.40;0.70;;;20.90;87.30;;;;;;4424896;32;20162;-71
2021/09/05 09:00:22;;;;;;;1.10;0.70;;;21.10;85.40;;;;;;4425219;32;20135;-70
2021/09/05 09:02:53;;;;;;;0.83;0.70;;;21.30;84.80;;;;;;4423635;32;20142;-70
2021/09/05 09:05:35;;;;;;;1.40;0.80;;;21.50;82.20;;;;;;4423432;32;20138;-70
2021/09/05 09:08:08;;;;;;;1.63;0.70;;;21.90;79.10;;;;;;4424610;32;20169;-70
2021/09/05 09:11:01;;;;;;;1.30;0.70;;;21.90;77.10;;;;;;4424418;32;20283;-70
2021/09/05 09:13:31;;;;;;;1.17;0.70;;;22.10;76.90;;;;;;4425254;32;20259;-70
2021/09/05 09:16:07;;;;;;;0.80;0.67;;;21.70;75.10;;;;;;4423165;32;20126;-68
2021/09/05 09:18:35;;;;;;;1.17;0.77;;;21.60;74.10;;;;;;4424917;32;20433;-69
2021/09/05 09:21:06;;;;;;;1.17;0.70;;;21.90;73.10;;;;;;4423011;32;20127;-70
2021/09/05 09:23:35;;;;;;;1.30;0.90;;;22.10;70.30;;;;;;4423755;32;20147;-71
2021/09/05 09:26:10;;;;;;;1.10;0.77;;;22.40;66.90;;;;;;4425030;32;20635;-69
2021/09/05 09:28:39;;;;;;;1.07;0.80;;;22.70;69.80;;;;;;4423405;32;20192;-70
2021/09/05 09:31:26;;;;;;;1.20;0.80;;;23.10;70.10;;;;;;4424697;32;20492;-70
2021/09/05 09:33:56;;;;;;;1.33;0.60;;;23.30;70.70;;;;;;4425069;32;20499;-70
2021/09/05 09:36:24;;;;;;;1.40;0.88;;;23.60;66.60;;;;;;4423379;32;20126;-69
2021/09/05 09:38:57;;;;;;;1.27;0.80;;;23.60;65.00;;;;;;4424985;32;20123;-69
2021/09/05 09:41:39;;;;;;;1.47;0.80;;;22.50;66.10;;;;;;4423958;32;20147;-70
2021/09/05 09:44:13;;;;;;;1.37;0.80;;;22.80;67.30;;;;;;4423204;32;20161;-70
2021/09/05 09:46:44;;;;;;;1.37;0.88;;;23.50;66.10;;;;;;4423798;32;20133;-69
2021/09/05 09:49:12;;;;;;;0.70;0.70;;;23.90;63.60;;;;;;4426106;32;20127;-69
2021/09/05 09:51:41;;;;;;;1.62;1.00;;;24.40;61.50;;;;;;4427853;32;20124;-70
2021/09/05 09:54:09;;;;;;;2.95;0.70;;;24.40;60.60;;;;;;4427531;32;20124;-70
2021/09/05 09:56:35;;;;;;;1.92;0.70;;;24.70;59.80;;;;;;4425872;32;20127;-69
2021/09/05 09:59:04;;;;;;;1.58;0.80;;;24.90;59.50;;;;;;4427979;32;20378;-69
2021/09/05 10:01:33;;;;;;;2.45;0.73;;;25.30;57.30;;;;;;4426639;32;20171;-69
2021/09/05 10:04:02;;;;;;;2.35;0.80;;;25.70;55.80;;;;;;4426100;32;20127;-70
2021/09/05 10:06:31;;;;;;;1.62;0.98;;;26.00;55.50;;;;;;4427893;32;20153;-69
2021/09/05 10:09:06;;;;;;;2.90;1.00;;;26.30;54.10;;;;;;4427532;32;20245;-69
2021/09/05 10:11:35;;;;;;;1.75;0.80;;;26.70;54.50;;;;;;4427418;32;20127;-69
2021/09/05 10:14:03;;;;;;;1.48;0.90;;;27.00;53.60;;;;;;4426053;32;20233;-69
2021/09/05 10:16:30;;;;;;;1.45;0.80;;;27.00;53.00;;;;;;4426837;32;20489;-69
2021/09/05 10:19:04;;;;;;;2.30;0.90;;;27.30;52.00;;;;;;4427466;32;20149;-70
2021/09/05 10:21:34;;;;;;;1.85;0.80;;;27.70;51.10;;;;;;4427723;32;20170;-70
2021/09/05 10:24:01;;;;;;;0.98;0.60;;;27.90;50.40;;;;;;4427779;32;20400;-70
2021/09/05 10:26:28;;;;;;;1.48;0.93;;;28.10;50.50;;;;;;4427677;32;20123;-69
2021/09/05 10:28:58;;;;;;;2.53;0.80;;;27.70;49.20;;;;;;4425990;32;20131;-70
2021/09/05 10:31:36;;;;;;;1.23;0.65;;;27.80;48.90;;;;;;4427273;32;20223;-69
2021/09/05 10:34:03;;;;;;;2.00;0.75;;;27.80;48.40;;;;;;4427239;32;20131;-69
2021/09/05 10:36:43;;;;;;;2.37;0.80;;;28.20;48.60;;;;;;4425889;32;20172;-69
2021/09/05 10:39:11;;;;;;;1.00;0.60;;;28.60;48.10;;;;;;4426946;32;20450;-70
2021/09/05 10:41:51;;;;;;;1.08;0.65;;;29.20;47.30;;;;;;4426960;32;20396;-70
2021/09/05 10:44:18;;;;;;;2.22;0.77;;;29.30;45.60;;;;;;4424865;32;20176;-70
2021/09/05 10:46:48;;;;;;;1.10;0.73;;;29.30;44.80;;;;;;4425220;32;20231;-70
2021/09/05 10:49:16;;;;;;;2.15;0.80;;;29.30;45.50;;;;;;4425482;32;20192;-70
2021/09/05 10:51:50;;;;;;;1.30;0.75;;;28.60;45.20;;;;;;4425358;32;20127;-70
2021/09/05 10:54:27;;;;;;;1.12;0.80;;;28.00;46.40;;;;;;4425715;32;20492;-69
2021/09/05 10:56:57;;;;;;;1.48;0.80;;;28.00;46.70;;;;;;4425223;32;20492;-69
2021/09/05 10:59:25;;;;;;;2.67;0.80;;;27.90;47.40;;;;;;4425403;32;20132;-69
2021/09/05 11:01:52;;;;;;;1.45;0.80;;;27.40;47.00;;;;;;4426686;32;20131;-69
2021/09/05 11:04:25;;;;;;;0.90;0.70;;;27.00;48.50;;;;;;4426798;32;20193;-69
2021/09/05 11:07:03;;;;;;;1.45;0.80;;;26.20;48.90;;;;;;4426668;32;20250;-71
2021/09/05 11:09:30;;;;;;;1.20;0.70;;;25.90;49.80;;;;;;4426717;32;20149;-71
2021/09/05 11:12:15;;;;;;;1.60;0.82;;;25.70;52.30;;;;;;4425119;32;20202;-70
2021/09/05 11:15:02;;;;;;;1.15;0.70;;;25.20;51.30;;;;;;4426566;32;20545;-70
2021/09/05 11:17:32;;;;;;;1.37;0.80;;;24.80;52.40;;;;;;4425722;32;20210;-69
2021/09/05 11:20:10;;;;;;;1.17;0.82;;;23.70;53.50;;;;;;4426209;32;20152;-70
2021/09/05 11:22:43;;;;;;;2.07;0.90;;;23.20;54.90;;;;;;4425133;32;20517;-70
2021/09/05 11:25:18;;;;;;;1.75;0.70;;;22.60;55.80;;;;;;4426531;32;20173;-70
2021/09/05 11:27:52;;;;;;;1.17;0.60;;;22.50;56.80;;;;;;4424573;32;20154;-69
2021/09/05 11:30:21;;;;;;;2.05;0.90;;;23.40;54.10;;;;;;4426344;32;20461;-70
2021/09/05 11:32:48;;;;;;;1.52;0.80;;;24.80;52.00;;;;;;4426037;32;20140;-70
2021/09/05 11:35:15;;;;;;;1.33;0.60;;;26.50;50.10;;;;;;4426603;32;20127;-70
2021/09/05 11:37:45;;;;;;;1.10;0.77;;;27.70;46.90;;;;;;4425388;32;20159;-69
2021/09/05 11:40:18;;;;;;;1.33;0.80;;;29.00;45.70;;;;;;4426405;32;20181;-70
2021/09/05 11:42:50;;;;;;;1.87;0.80;;;29.90;44.00;;;;;;4424164;32;20446;-69
2021/09/05 11:45:20;;;;;;;1.35;0.70;;;29.80;43.10;;;;;;4426153;32;20150;-69
2021/09/05 11:47:47;;;;;;;1.67;0.80;;;30.00;44.30;;;;;;4425054;32;20252;-70
2021/09/05 11:50:15;;;;;;;1.20;0.62;;;30.80;44.10;;;;;;4426410;32;20139;-69
2021/09/05 11:52:43;;;;;;;1.15;0.60;;;30.50;42.10;;;;;;4426396;32;20127;-70
2021/09/05 11:55:12;;;;;;;1.00;0.62;;;28.90;42.70;;;;;;4426362;32;20449;-71
2021/09/05 11:57:51;;;;;;;2.22;0.60;;;27.80;44.90;;;;;;4424270;32;20203;-70
2021/09/05 12:00:31;;;;;;;3.97;1.65;;;27.20;45.30;;;;;;4426233;32;20204;-70
2021/09/05 12:03:01;;;;;;;1.60;0.90;;;28.20;45.20;;;;;;4424379;32;20147;-70
2021/09/05 12:05:28;;;;;;;2.30;0.70;;;29.50;44.10;;;;;;4425640;32;20471;-71
2021/09/05 12:07:55;;;;;;;1.48;0.60;;;30.70;40.90;;;;;;4424881;32;20126;-71
2021/09/05 12:10:25;;;;;;;1.33;0.80;;;31.40;38.60;;;;;;4425014;32;20162;-68
2021/09/05 12:13:02;;;;;;;0.85;0.65;;;32.10;38.10;;;;;;4424951;32;20127;-69
2021/09/05 12:15:32;;;;;;;2.03;0.80;;;32.90;37.10;;;;;;4425899;32;20139;-70
2021/09/05 12:17:59;;;;;;;1.50;0.80;;;33.30;37.20;;;;;;4423759;32;20184;-69
2021/09/05 12:20:40;;;;;;;1.58;0.60;;;33.40;36.00;;;;;;4423896;32;20155;-71
2021/09/05 12:23:18;;;;;;;0.98;0.70;;;33.80;36.20;;;;;;4425685;32;20131;-69
2021/09/05 12:25:45;;;;;;;1.10;0.70;;;33.90;35.70;;;;;;4423839;32;20184;-69
2021/09/05 12:28:18;;;;;;;2.37;0.70;;;32.90;36.00;;;;;;4423963;32;20356;-70
2021/09/05 12:30:57;;;;;;;1.35;0.60;;;31.40;36.10;;;;;;4423676;32;20142;-70
2021/09/05 12:33:27;;;;;;;1.23;0.70;;;31.00;38.30;;;;;;4423928;32;20125;-70
2021/09/05 12:36:05;;;;;;;1.67;0.70;;;30.80;38.00;;;;;;4425567;32;20484;-69
2021/09/05 12:38:34;;;;;;;1.02;0.60;;;30.30;39.00;;;;;;4425148;32;20183;-71
2021/09/05 12:41:06;;;;;;;0.73;0.50;;;30.60;37.80;;;;;;4425317;32;20392;-71
2021/09/05 12:43:48;;;;;;;0.82;0.60;;;31.20;37.60;;;;;;4423192;32;20278;-70
2021/09/05 12:46:19;;;;;;;0.70;0.50;;;32.00;36.00;;;;;;4425162;32;20135;-69
2021/09/05 12:48:49;;;;;;;1.23;0.60;;;32.40;35.30;;;;;;4423524;32;20168;-71
2021/09/05 12:51:19;;;;;;;2.22;0.55;;;32.50;33.50;;;;;;4423643;32;20464;-70
2021/09/05 12:54:03;;;;;;;0.73;0.60;;;32.70;35.00;;;;;;4423418;32;20465;-71
2021/09/05 12:56:30;;;;;;;1.15;0.70;;;32.60;33.40;;;;;;4424235;32;20161;-70
2021/09/05 12:58:57;;;;;;;0.95;0.60;;;31.60;34.10;;;;;;4424207;32;20180;-70